NZQN/ZQN METAR and TAF weather

Enter ICAO airport designator
Station Type Date Time Source
NZQN METAR UTC NOAA

Error!


Station Type Date Time Source
NZQN Decoded METAR UTC NOAA

Error!

Station Type Date Time Source
NZQN TAF 2020/09/20 18:06 UTC NOAA

TAF NZQN 201705Z 2018/2112 04005KT 9999 SKC
BECMG 2021/2023 26010KT

Example: see airport list